createdAt,value
2022-09-24T00:01:40.720Z,101137.50
2022-09-24T00:04:12.401Z,101123.78
2022-09-24T00:06:48.435Z,101129.59
2022-09-24T00:09:22.071Z,101134.25
2022-09-24T00:11:55.134Z,101134.75
2022-09-24T00:14:22.103Z,101141.19
2022-09-24T00:16:49.689Z,101136.34
2022-09-24T00:19:16.659Z,101117.00
2022-09-24T00:21:44.004Z,101129.97
2022-09-24T00:24:36.618Z,101126.28
2022-09-24T00:27:06.370Z,101129.31
2022-09-24T00:29:35.577Z,101122.19
2022-09-24T00:32:04.310Z,101126.13
2022-09-24T00:34:31.479Z,101126.63
2022-09-24T00:36:59.125Z,101127.63
2022-09-24T00:39:26.153Z,101119.84
2022-09-24T00:41:53.062Z,101120.69
2022-09-24T00:44:41.204Z,101117.56
2022-09-24T00:47:17.353Z,101123.34
2022-09-24T00:49:48.073Z,101128.13
2022-09-24T00:52:16.121Z,101114.66
2022-09-24T00:54:44.239Z,101118.84
2022-09-24T00:57:13.330Z,101113.44
2022-09-24T00:59:42.593Z,101109.88
2022-09-24T01:02:09.751Z,101108.44
2022-09-24T01:04:36.906Z,101109.34
2022-09-24T01:07:03.923Z,101108.53
2022-09-24T01:09:31.090Z,101099.81
2022-09-24T01:12:36.058Z,101100.50
2022-09-24T01:15:24.799Z,101090.56
2022-09-24T01:18:07.336Z,101090.00
2022-09-24T01:20:51.611Z,101086.94
2022-09-24T01:23:35.649Z,101085.28
2022-09-24T01:26:38.498Z,101084.38
2022-09-24T01:29:32.198Z,101089.44
2022-09-24T01:32:13.914Z,101081.75
2022-09-24T01:35:02.631Z,101083.09
2022-09-24T01:37:34.302Z,101087.91
2022-09-24T01:40:03.973Z,101082.06
2022-09-24T01:42:32.128Z,101069.53
2022-09-24T01:45:01.814Z,101074.53
2022-09-24T01:47:40.037Z,101076.94
2022-09-24T01:50:11.331Z,101067.59
2022-09-24T01:53:06.414Z,101072.53
2022-09-24T01:55:44.808Z,101073.34
2022-09-24T01:58:28.118Z,101071.63
2022-09-24T02:01:06.053Z,101061.13
2022-09-24T02:03:40.090Z,101060.09
2022-09-24T02:06:20.996Z,101067.78
2022-09-24T02:08:49.086Z,101062.63
2022-09-24T02:11:24.290Z,101059.53
2022-09-24T02:14:07.937Z,101058.25
2022-09-24T02:16:41.851Z,101059.88
2022-09-24T02:19:14.645Z,101058.16
2022-09-24T02:21:44.873Z,101052.94
2022-09-24T02:24:19.092Z,101050.13
2022-09-24T02:26:46.710Z,101064.81
2022-09-24T02:29:14.068Z,101068.25
2022-09-24T02:31:49.667Z,101058.09
2022-09-24T02:34:23.445Z,101066.19
2022-09-24T02:36:59.557Z,101052.63
2022-09-24T02:39:27.123Z,101054.00
2022-09-24T02:41:54.978Z,101049.31
2022-09-24T02:44:22.443Z,101054.50
2022-09-24T02:46:50.841Z,101043.03
2022-09-24T02:49:18.676Z,101043.53
2022-09-24T02:51:46.273Z,101039.00
2022-09-24T02:54:13.386Z,101038.22
2022-09-24T02:56:40.905Z,101039.28
2022-09-24T02:59:08.686Z,101025.78
2022-09-24T03:01:36.453Z,101033.41
2022-09-24T03:04:04.798Z,101033.63
2022-09-24T03:06:32.416Z,101042.50
2022-09-24T03:09:00.947Z,101029.44
2022-09-24T03:11:28.980Z,101026.59
2022-09-24T03:13:55.920Z,101026.69
2022-09-24T03:16:23.143Z,101027.41
2022-09-24T03:18:50.199Z,101024.75
2022-09-24T03:21:20.966Z,101016.75
2022-09-24T03:23:48.126Z,101019.31
2022-09-24T03:26:15.251Z,101014.97
2022-09-24T03:28:42.190Z,101017.34
2022-09-24T03:31:09.680Z,101016.91
2022-09-24T03:33:49.052Z,101020.81
2022-09-24T03:36:25.907Z,101010.47
2022-09-24T03:38:56.522Z,101008.00
2022-09-24T03:41:27.329Z,101005.44
2022-09-24T03:43:55.316Z,101008.13
2022-09-24T03:46:24.401Z,101019.13
2022-09-24T03:48:52.147Z,101004.38
2022-09-24T03:51:20.222Z,101008.72
2022-09-24T03:53:48.630Z,101003.50
2022-09-24T03:56:16.246Z,101001.81
2022-09-24T03:58:48.050Z,101007.84
2022-09-24T04:01:20.768Z,101000.22
2022-09-24T04:03:49.495Z,100999.19
2022-09-24T04:06:20.716Z,100999.53
2022-09-24T04:08:50.555Z,100998.47
2022-09-24T04:11:17.474Z,101002.38
2022-09-24T04:13:44.672Z,100989.16
2022-09-24T04:16:11.579Z,100997.56
2022-09-24T04:18:39.709Z,100997.78
2022-09-24T04:21:07.139Z,100990.03
2022-09-24T04:23:34.470Z,100989.66
2022-09-24T04:26:02.389Z,100981.34
2022-09-24T04:28:30.843Z,100991.78
2022-09-24T04:30:58.734Z,100990.66
2022-09-24T04:33:26.335Z,100990.06
2022-09-24T04:35:53.337Z,100981.56
2022-09-24T04:38:21.397Z,100973.03
2022-09-24T04:40:49.289Z,100982.72
2022-09-24T04:43:18.356Z,100979.75
2022-09-24T04:45:46.483Z,100993.41
2022-09-24T04:48:14.183Z,100987.06
2022-09-24T04:50:45.730Z,100987.13
2022-09-24T04:53:13.442Z,100990.84
2022-09-24T04:55:41.849Z,100988.66
2022-09-24T04:58:09.927Z,100988.50
2022-09-24T05:00:37.734Z,100992.69
2022-09-24T05:03:05.173Z,100975.94
2022-09-24T05:05:33.773Z,100987.41
2022-09-24T05:08:01.580Z,100980.38
2022-09-24T05:10:30.265Z,100987.13
2022-09-24T05:12:57.218Z,100988.94
2022-09-24T05:15:24.182Z,100990.72
2022-09-24T05:17:51.189Z,100990.00
2022-09-24T05:20:18.183Z,100987.78
2022-09-24T05:22:47.394Z,100986.75
2022-09-24T05:25:16.812Z,100981.81
2022-09-24T05:27:52.544Z,100979.34
2022-09-24T05:30:21.952Z,100982.13
2022-09-24T05:32:55.103Z,100985.56
2022-09-24T05:35:24.042Z,100977.66
2022-09-24T05:37:53.614Z,100980.41
2022-09-24T05:40:39.896Z,100970.19
2022-09-24T05:43:07.136Z,100962.84
2022-09-24T05:45:34.097Z,100969.44
2022-09-24T05:48:01.290Z,100969.66
2022-09-24T05:50:28.597Z,100965.25
2022-09-24T05:52:55.724Z,100976.25
2022-09-24T05:55:22.673Z,100978.88
2022-09-24T05:57:49.677Z,100980.56
2022-09-24T06:00:16.724Z,100993.22
2022-09-24T06:02:43.889Z,100989.38
2022-09-24T06:05:11.847Z,100990.19
2022-09-24T06:07:39.502Z,100989.81
2022-09-24T06:10:10.401Z,100991.25
2022-09-24T06:12:37.335Z,100995.34
2022-09-24T06:15:05.146Z,101005.28
2022-09-24T06:17:32.564Z,101004.84
2022-09-24T06:19:59.576Z,101001.06
2022-09-24T06:22:29.005Z,100998.56
2022-09-24T06:24:56.393Z,100996.06
2022-09-24T06:27:23.364Z,101005.41
2022-09-24T06:29:50.427Z,101003.28
2022-09-24T06:32:18.220Z,100998.72
2022-09-24T06:34:45.442Z,100992.38
2022-09-24T06:37:12.447Z,100997.31
2022-09-24T06:39:39.427Z,101007.34
2022-09-24T06:42:07.173Z,101001.03
2022-09-24T06:44:34.961Z,100995.69
2022-09-24T06:47:02.312Z,100989.69
2022-09-24T06:49:33.790Z,100985.03
2022-09-24T06:52:01.539Z,100998.56
2022-09-24T06:54:28.509Z,100991.19
2022-09-24T06:56:55.426Z,100990.59
2022-09-24T06:59:22.570Z,100985.66
2022-09-24T07:01:49.560Z,100998.78
2022-09-24T07:04:16.625Z,100995.97
2022-09-24T07:07:01.771Z,100998.72
2022-09-24T07:09:28.738Z,100992.63
2022-09-24T07:11:57.012Z,100988.19
2022-09-24T07:14:24.016Z,100992.50
2022-09-24T07:16:52.183Z,100993.44
2022-09-24T07:19:19.118Z,100996.00
2022-09-24T07:21:46.117Z,100990.63
2022-09-24T07:24:13.001Z,100988.63
2022-09-24T07:26:39.901Z,100988.41
2022-09-24T07:29:06.918Z,100992.97
2022-09-24T07:31:34.181Z,100993.34
2022-09-24T07:34:01.257Z,100994.41
2022-09-24T07:36:31.022Z,101000.78
2022-09-24T07:38:58.499Z,101000.34
2022-09-24T07:41:25.935Z,101003.22
2022-09-24T07:43:55.358Z,101017.81
2022-09-24T07:46:22.448Z,100999.59
2022-09-24T07:48:49.487Z,101006.09
2022-09-24T07:51:16.927Z,100998.31
2022-09-24T07:53:43.928Z,101017.47
2022-09-24T07:56:11.098Z,101020.75
2022-09-24T07:58:40.449Z,101012.41
2022-09-24T08:01:07.554Z,101020.75
2022-09-24T08:03:34.826Z,101018.91
2022-09-24T08:06:01.916Z,101016.19
2022-09-24T08:08:28.908Z,101010.44
2022-09-24T08:10:55.879Z,101007.13
2022-09-24T08:13:27.512Z,101008.81
2022-09-24T08:16:02.413Z,101003.22
2022-09-24T08:18:31.929Z,101010.59
2022-09-24T08:21:11.923Z,101005.56
2022-09-24T08:23:40.790Z,100999.78
2022-09-24T08:26:09.080Z,101002.63
2022-09-24T08:28:36.358Z,101005.56
2022-09-24T08:31:09.926Z,101012.25
2022-09-24T08:33:38.330Z,101014.59
2022-09-24T08:36:09.102Z,101018.84
2022-09-24T08:38:36.412Z,101026.19
2022-09-24T08:41:06.586Z,101028.44
2022-09-24T08:43:58.204Z,101033.38
2022-09-24T08:46:58.669Z,101029.78
2022-09-24T08:49:33.393Z,101031.41
2022-09-24T08:52:29.732Z,101028.69
2022-09-24T08:55:04.794Z,101028.75
2022-09-24T08:57:50.017Z,101020.56
2022-09-24T09:00:17.172Z,101034.84
2022-09-24T09:03:15.683Z,101020.00
2022-09-24T09:06:36.623Z,101039.88
2022-09-24T09:09:21.851Z,101032.94
2022-09-24T09:12:04.789Z,101040.72
2022-09-24T09:15:27.377Z,101050.63
2022-09-24T09:18:06.474Z,101057.31
2022-09-24T09:20:41.551Z,101059.72
2022-09-24T09:23:22.561Z,101055.16
2022-09-24T09:25:57.458Z,101062.44
2022-09-24T09:28:27.430Z,101065.59
2022-09-24T09:31:13.043Z,101064.19
2022-09-24T09:33:46.461Z,101058.25
2022-09-24T09:36:16.302Z,101057.53
2022-09-24T09:39:05.781Z,101061.75
2022-09-24T09:41:49.332Z,101066.78
2022-09-24T09:44:25.720Z,101069.75
2022-09-24T09:47:04.076Z,101073.25
2022-09-24T09:49:38.609Z,101069.06
2022-09-24T09:52:15.388Z,101065.69
2022-09-24T09:54:43.453Z,101069.97
2022-09-24T09:57:20.848Z,101061.56
2022-09-24T09:59:50.625Z,101061.59
2022-09-24T10:02:25.762Z,101071.88
2022-09-24T10:04:58.905Z,101069.44
2022-09-24T10:07:26.138Z,101057.81
2022-09-24T10:10:25.259Z,101064.50
2022-09-24T10:13:08.143Z,101063.00
2022-09-24T10:15:49.100Z,101067.84
2022-09-24T10:18:16.892Z,101073.03
2022-09-24T10:20:48.318Z,101067.66
2022-09-24T10:23:34.397Z,101075.16
2022-09-24T10:26:03.338Z,101069.38
2022-09-24T10:28:50.058Z,101074.19
2022-09-24T10:31:26.730Z,101068.56
2022-09-24T10:33:57.893Z,101063.69
2022-09-24T10:36:35.146Z,101068.47
2022-09-24T10:39:14.855Z,101076.38
2022-09-24T10:41:49.115Z,101076.28
2022-09-24T10:44:17.192Z,101073.50
2022-09-24T10:47:10.502Z,101069.94
2022-09-24T10:50:20.543Z,101078.13
2022-09-24T10:52:56.994Z,101077.13
2022-09-24T10:56:02.105Z,101081.13
2022-09-24T10:58:47.170Z,101080.44
2022-09-24T11:01:26.330Z,101082.63
2022-09-24T11:04:19.153Z,101066.91
2022-09-24T11:07:28.220Z,101082.09
2022-09-24T11:10:13.515Z,101078.00
2022-09-24T11:13:12.666Z,101089.56
2022-09-24T11:16:06.599Z,101082.53
2022-09-24T11:18:50.238Z,101086.75
2022-09-24T11:22:08.171Z,101094.09
2022-09-24T11:25:02.522Z,101097.16
2022-09-24T11:28:09.890Z,101090.28
2022-09-24T11:31:15.605Z,101090.06
2022-09-24T11:34:24.079Z,101087.75
2022-09-24T11:37:21.099Z,101094.72
2022-09-24T11:40:10.791Z,101086.19
2022-09-24T11:43:21.483Z,101088.31
2022-09-24T11:46:19.232Z,101093.41
2022-09-24T11:48:53.749Z,101086.00
2022-09-24T11:51:41.274Z,101100.91
2022-09-24T11:54:43.311Z,101093.75
2022-09-24T11:57:24.207Z,101096.53
2022-09-24T12:00:07.581Z,101086.31
2022-09-24T12:02:48.010Z,101091.31
2022-09-24T12:05:40.742Z,101088.44
2022-09-24T12:08:13.722Z,101084.50
2022-09-24T12:11:16.701Z,101083.69
2022-09-24T12:14:06.491Z,101087.84
2022-09-24T12:16:38.262Z,101093.53
2022-09-24T12:19:27.049Z,101077.19
2022-09-24T12:21:58.214Z,101089.09
2022-09-24T12:24:41.941Z,101089.72
2022-09-24T12:27:17.048Z,101095.81
2022-09-24T12:30:10.777Z,101087.66
2022-09-24T12:32:57.083Z,101083.78
2022-09-24T12:35:55.250Z,101089.69
2022-09-24T12:38:46.996Z,101080.72
2022-09-24T12:41:35.957Z,101081.72
2022-09-24T12:44:12.167Z,101077.53
2022-09-24T12:46:48.591Z,101078.47
2022-09-24T12:49:24.819Z,101082.94
2022-09-24T12:52:40.006Z,101073.72
2022-09-24T12:55:30.430Z,101073.06
2022-09-24T12:58:26.237Z,101089.03
2022-09-24T13:01:30.661Z,101072.53
2022-09-24T13:04:05.786Z,101082.31
2022-09-24T13:06:38.018Z,101083.09
2022-09-24T13:09:37.070Z,101097.25
2022-09-24T13:12:21.480Z,101094.56
2022-09-24T13:15:28.763Z,101099.78
2022-09-24T13:18:08.829Z,101093.97
2022-09-24T13:20:38.773Z,101096.41
2022-09-24T13:23:20.336Z,101101.16
2022-09-24T13:25:58.992Z,101096.44
2022-09-24T13:28:52.417Z,101097.31
2022-09-24T13:31:22.129Z,101096.75
2022-09-24T13:33:55.078Z,101102.25
2022-09-24T13:36:57.760Z,101103.75
2022-09-24T13:39:59.143Z,101101.72
2022-09-24T13:42:39.896Z,101107.94
2022-09-24T13:45:23.105Z,101102.13
2022-09-24T13:48:34.352Z,101121.69
2022-09-24T13:51:04.407Z,101117.97
2022-09-24T13:53:49.663Z,101120.59
2022-09-24T13:56:19.284Z,101118.28
2022-09-24T13:58:48.323Z,101109.19
2022-09-24T14:01:30.109Z,101117.44
2022-09-24T14:04:06.401Z,101114.66
2022-09-24T14:06:40.668Z,101111.03
2022-09-24T14:09:32.611Z,101117.91
2022-09-24T14:12:22.030Z,101125.50
2022-09-24T14:14:58.368Z,101131.06
2022-09-24T14:17:26.371Z,101115.31
2022-09-24T14:19:57.433Z,101117.69
2022-09-24T14:22:37.392Z,101120.84
2022-09-24T14:25:10.999Z,101126.00
2022-09-24T14:27:47.146Z,101125.03
2022-09-24T14:30:37.257Z,101116.06
2022-09-24T14:33:13.300Z,101120.63
2022-09-24T14:35:45.901Z,101120.13
2022-09-24T14:38:36.026Z,101125.22
2022-09-24T14:41:29.842Z,101115.03
2022-09-24T14:44:18.655Z,101122.03
2022-09-24T14:46:57.853Z,101117.50
2022-09-24T14:49:32.836Z,101121.97
2022-09-24T14:52:01.923Z,101109.75
2022-09-24T14:54:42.590Z,101112.38
2022-09-24T14:57:25.173Z,101114.66
2022-09-24T14:59:52.647Z,101121.19
2022-09-24T15:02:37.097Z,101119.47
2022-09-24T15:05:08.156Z,101119.13
2022-09-24T15:07:36.314Z,101124.03
2022-09-24T15:10:06.186Z,101129.22
2022-09-24T15:12:38.280Z,101125.56
2022-09-24T15:15:16.926Z,101122.38
2022-09-24T15:17:47.142Z,101124.25
2022-09-24T15:20:14.642Z,101124.44
2022-09-24T15:22:42.911Z,101132.16
2022-09-24T15:25:10.719Z,101122.03
2022-09-24T15:27:39.985Z,101119.13
2022-09-24T15:30:12.233Z,101118.53
2022-09-24T15:32:39.233Z,101131.97
2022-09-24T15:35:09.484Z,101129.94
2022-09-24T15:37:39.912Z,101134.66
2022-09-24T15:40:16.950Z,101140.19
2022-09-24T15:42:43.933Z,101141.81
2022-09-24T15:45:21.570Z,101138.13
2022-09-24T15:47:50.180Z,101139.38
2022-09-24T15:50:18.208Z,101146.53
2022-09-24T15:52:56.822Z,101150.03
2022-09-24T15:55:24.215Z,101147.50
2022-09-24T15:57:51.451Z,101150.63
2022-09-24T16:00:21.390Z,101154.66
2022-09-24T16:02:55.285Z,101163.06
2022-09-24T16:05:23.113Z,101156.53
2022-09-24T16:07:50.034Z,101160.66
2022-09-24T16:10:17.856Z,101161.41
2022-09-24T16:12:44.762Z,101152.41
2022-09-24T16:15:16.562Z,101153.06
2022-09-24T16:17:44.192Z,101161.84
2022-09-24T16:20:11.172Z,101162.56
2022-09-24T16:22:38.129Z,101158.50
2022-09-24T16:25:05.942Z,101165.72
2022-09-24T16:27:33.893Z,101166.22
2022-09-24T16:30:01.963Z,101170.59
2022-09-24T16:32:29.194Z,101164.69
2022-09-24T16:34:57.043Z,101168.28
2022-09-24T16:37:25.070Z,101174.72
2022-09-24T16:39:52.640Z,101169.69
2022-09-24T16:42:19.733Z,101171.59
2022-09-24T16:44:46.772Z,101167.22
2022-09-24T16:47:17.700Z,101174.09
2022-09-24T16:49:44.693Z,101171.34
2022-09-24T16:52:11.658Z,101175.00
2022-09-24T16:54:38.626Z,101168.78
2022-09-24T16:57:06.345Z,101169.59
2022-09-24T16:59:33.925Z,101179.31
2022-09-24T17:02:01.307Z,101187.03
2022-09-24T17:04:28.500Z,101179.41
2022-09-24T17:06:58.877Z,101188.13
2022-09-24T17:09:44.643Z,101197.94
2022-09-24T17:12:11.657Z,101206.03
2022-09-24T17:14:38.994Z,101201.16
2022-09-24T17:17:07.103Z,101199.09
2022-09-24T17:19:34.164Z,101207.47
2022-09-24T17:22:01.311Z,101216.94
2022-09-24T17:24:28.401Z,101213.38
2022-09-24T17:26:56.559Z,101211.19
2022-09-24T17:29:30.319Z,101214.19
2022-09-24T17:31:58.678Z,101210.97
2022-09-24T17:34:25.984Z,101216.63
2022-09-24T17:36:52.967Z,101218.59
2022-09-24T17:39:19.876Z,101220.78
2022-09-24T17:41:46.838Z,101219.31
2022-09-24T17:44:14.018Z,101216.69
2022-09-24T17:46:41.109Z,101221.75
2022-09-24T17:49:08.903Z,101236.38
2022-09-24T17:51:37.047Z,101230.16
2022-09-24T17:54:14.339Z,101238.59
2022-09-24T17:56:41.970Z,101241.97
2022-09-24T17:59:12.079Z,101239.16
2022-09-24T18:01:43.000Z,101245.56
2022-09-24T18:04:14.920Z,101255.88
2022-09-24T18:06:45.123Z,101254.56
2022-09-24T18:09:13.836Z,101257.88
2022-09-24T18:11:47.322Z,101268.25
2022-09-24T18:14:21.374Z,101267.91
2022-09-24T18:16:52.145Z,101262.22
2022-09-24T18:19:19.163Z,101265.72
2022-09-24T18:21:48.778Z,101267.91
2022-09-24T18:24:16.492Z,101276.88
2022-09-24T18:26:43.743Z,101274.91
2022-09-24T18:29:16.427Z,101277.72
2022-09-24T18:31:44.657Z,101277.00
2022-09-24T18:34:15.347Z,101274.34
2022-09-24T18:36:44.752Z,101287.22
2022-09-24T18:39:15.853Z,101285.06
2022-09-24T18:41:44.696Z,101291.63
2022-09-24T18:44:11.877Z,101288.72
2022-09-24T18:46:40.114Z,101286.28
2022-09-24T18:49:07.706Z,101296.78
2022-09-24T18:51:37.606Z,101291.91
2022-09-24T18:54:12.559Z,101298.81
2022-09-24T18:56:39.998Z,101299.78
2022-09-24T18:59:12.506Z,101299.03
2022-09-24T19:01:40.692Z,101305.53
2022-09-24T19:04:14.434Z,101311.66
2022-09-24T19:06:44.252Z,101314.81
2022-09-24T19:09:13.800Z,101318.25
2022-09-24T19:11:42.058Z,101324.41
2022-09-24T19:14:13.528Z,101322.25
2022-09-24T19:16:40.617Z,101322.31
2022-09-24T19:19:07.543Z,101335.00
2022-09-24T19:21:34.425Z,101332.31
2022-09-24T19:24:01.705Z,101332.22
2022-09-24T19:26:32.228Z,101336.78
2022-09-24T19:29:00.313Z,101337.34
2022-09-24T19:31:32.404Z,101341.34
2022-09-24T19:34:03.474Z,101348.25
2022-09-24T19:36:36.222Z,101349.22
2022-09-24T19:39:05.763Z,101353.13
2022-09-24T19:41:32.763Z,101349.38
2022-09-24T19:44:04.582Z,101358.44
2022-09-24T19:46:34.739Z,101352.63
2022-09-24T19:49:01.922Z,101360.03
2022-09-24T19:51:31.823Z,101355.53
2022-09-24T19:54:06.609Z,101351.22
2022-09-24T19:56:34.233Z,101353.72
2022-09-24T19:59:02.424Z,101352.78
2022-09-24T20:01:31.983Z,101351.13
2022-09-24T20:04:03.886Z,101356.34
2022-09-24T20:06:33.987Z,101361.00
2022-09-24T20:09:01.166Z,101354.34
2022-09-24T20:11:29.394Z,101369.31
2022-09-24T20:13:56.699Z,101380.91
2022-09-24T20:16:27.168Z,101370.72
2022-09-24T20:18:57.934Z,101367.31
2022-09-24T20:21:27.835Z,101379.81
2022-09-24T20:23:57.849Z,101382.47
2022-09-24T20:26:44.962Z,101379.22
2022-09-24T20:29:14.502Z,101380.13
2022-09-24T20:31:51.312Z,101381.00
2022-09-24T20:34:20.986Z,101382.94
2022-09-24T20:36:48.198Z,101396.44
2022-09-24T20:39:15.323Z,101400.13
2022-09-24T20:41:42.856Z,101384.97
2022-09-24T20:44:09.889Z,101392.78
2022-09-24T20:46:37.057Z,101401.94
2022-09-24T20:49:04.051Z,101408.53
2022-09-24T20:51:33.734Z,101397.81
2022-09-24T20:54:01.709Z,101406.53
2022-09-24T20:56:30.686Z,101404.91
2022-09-24T20:58:58.685Z,101409.56
2022-09-24T21:01:25.818Z,101405.72
2022-09-24T21:03:53.350Z,101408.09
2022-09-24T21:06:24.811Z,101400.97
2022-09-24T21:08:52.782Z,101407.53
2022-09-24T21:11:26.862Z,101400.75
2022-09-24T21:14:02.862Z,101408.38
2022-09-24T21:16:34.588Z,101408.41
2022-09-24T21:19:05.687Z,101414.81
2022-09-24T21:21:38.991Z,101416.59
2022-09-24T21:24:09.949Z,101426.50
2022-09-24T21:26:38.817Z,101418.78
2022-09-24T21:29:12.101Z,101422.75
2022-09-24T21:31:40.190Z,101420.91
2022-09-24T21:34:08.626Z,101423.06
2022-09-24T21:36:43.990Z,101424.34
2022-09-24T21:39:23.148Z,101414.72
2022-09-24T21:41:51.388Z,101427.25
2022-09-24T21:44:19.545Z,101424.44
2022-09-24T21:46:47.734Z,101433.31
2022-09-24T21:49:17.320Z,101425.09
2022-09-24T21:51:45.504Z,101427.59
2022-09-24T21:54:17.415Z,101434.41
2022-09-24T21:56:45.725Z,101425.59
2022-09-24T21:59:31.954Z,101425.63
2022-09-24T22:01:59.482Z,101423.28
2022-09-24T22:04:27.694Z,101427.19
2022-09-24T22:06:54.712Z,101427.88
2022-09-24T22:09:22.355Z,101425.25
2022-09-24T22:11:51.541Z,101428.91
2022-09-24T22:14:18.680Z,101435.00
2022-09-24T22:16:45.688Z,101432.47
2022-09-24T22:19:12.964Z,101433.44
2022-09-24T22:21:40.536Z,101431.97
2022-09-24T22:24:07.487Z,101430.31
2022-09-24T22:26:34.586Z,101434.94
2022-09-24T22:29:03.860Z,101427.50
2022-09-24T22:31:33.261Z,101427.34
2022-09-24T22:34:18.929Z,101424.34
2022-09-24T22:36:47.180Z,101422.72
2022-09-24T22:39:15.431Z,101423.16
2022-09-24T22:41:43.302Z,101423.59
2022-09-24T22:44:12.165Z,101428.56
2022-09-24T22:46:40.353Z,101433.03
2022-09-24T22:49:08.090Z,101431.22
2022-09-24T22:51:36.103Z,101427.59
2022-09-24T22:54:03.126Z,101436.59
2022-09-24T22:56:30.516Z,101435.59
2022-09-24T22:59:00.854Z,101428.50
2022-09-24T23:01:45.962Z,101437.25
2022-09-24T23:04:15.158Z,101438.69
2022-09-24T23:06:43.589Z,101432.97
2022-09-24T23:09:11.439Z,101432.47
2022-09-24T23:11:38.842Z,101432.72
2022-09-24T23:14:12.516Z,101431.00
2022-09-24T23:16:40.514Z,101439.63
2022-09-24T23:19:21.006Z,101433.44
2022-09-24T23:21:48.009Z,101437.03
2022-09-24T23:24:17.795Z,101436.88
2022-09-24T23:26:45.769Z,101434.84
2022-09-24T23:29:14.504Z,101431.22
2022-09-24T23:31:41.645Z,101432.06
2022-09-24T23:34:08.914Z,101428.56
2022-09-24T23:36:36.274Z,101432.44
2022-09-24T23:39:04.690Z,101437.81
2022-09-24T23:41:31.861Z,101432.44
2022-09-24T23:44:00.003Z,101431.09
2022-09-24T23:46:27.506Z,101429.09
2022-09-24T23:48:55.575Z,101435.97
2022-09-24T23:51:23.466Z,101432.72
2022-09-24T23:53:50.959Z,101432.66
2022-09-24T23:56:19.011Z,101445.88
2022-09-24T23:58:46.145Z,101449.81
